Time;durP1;ratioP1;P1;durP2;ratioP2;P2;SDS_P1;SDS_P2;PMS_P1;PMS_P2;Temp;Humidity;BMP_temperature;BMP_pressure;BME280_temperature;BME280_humidity;BME280_pressure;Samples;Min_cycle;Max_cycle;Signal;HPM_P1;HPM_P2
2021/07/14 05:02:49;;;;;;;9.27;8.57;;;;;;;26.71;61.59;94765.09;5078489;23;20367;-82
2021/07/14 05:05:15;;;;;;;9.25;8.50;;;;;;;27.25;59.03;94772.22;4970578;28;20026;-84
2021/07/14 05:07:41;;;;;;;8.93;7.63;;;;;;;26.66;58.89;94770.47;4982567;28;20023;-81
2021/07/14 05:10:07;;;;;;;8.60;7.80;;;;;;;27.63;58.92;94775.88;4985590;28;20441;-79
2021/07/14 05:12:33;;;;;;;9.00;8.25;;;;;;;27.73;58.35;94773.91;4988390;28;20049;-79
2021/07/14 05:14:58;;;;;;;9.98;9.02;;;;;;;31.46;49.12;94775.81;4988008;28;20034;-80
2021/07/14 05:17:24;;;;;;;8.77;8.10;;;;;;;31.41;48.84;94779.41;4983944;28;20063;-79
2021/07/14 05:19:49;;;;;;;8.57;7.80;;;;;;;31.14;49.61;94776.88;4979181;28;20031;-78
2021/07/14 05:22:15;;;;;;;8.95;8.02;;;;;;;32.19;47.26;94768.03;4985062;28;20530;-77
2021/07/14 05:24:41;;;;;;;8.43;7.65;;;;;;;32.36;46.34;94778.03;4971046;28;20034;-78
2021/07/14 05:27:06;;;;;;;8.50;7.80;;;;;;;31.32;47.01;94781.25;4973616;28;20030;-79
2021/07/14 05:29:32;;;;;;;7.75;7.15;;;;;;;29.82;50.87;94789.44;4989391;28;20022;-78
2021/07/14 05:31:57;;;;;;;8.27;7.53;;;;;;;30.89;48.46;94777.44;4989149;28;20518;-80
2021/07/14 05:34:23;;;;;;;8.27;7.57;;;;;;;32.79;44.90;94784.28;4988683;28;20026;-79
2021/07/14 05:36:48;;;;;;;7.60;6.85;;;;;;;32.82;44.31;94780.19;4989883;28;20427;-80
2021/07/14 05:39:14;;;;;;;7.25;6.63;;;;;;;33.09;43.11;94779.13;4988652;28;20373;-79
2021/07/14 05:41:41;;;;;;;7.32;6.55;;;;;;;32.50;44.53;94781.34;4989587;28;20108;-79
2021/07/14 05:44:07;;;;;;;8.82;6.72;;;;;;;33.38;43.06;94776.56;4988680;28;20041;-78
2021/07/14 05:46:33;;;;;;;7.10;6.70;;;;;;;34.03;41.71;94783.56;4988988;28;20415;-79
2021/07/14 05:49:02;;;;;;;7.15;6.47;;;;;;;34.30;41.31;94789.31;4984618;28;20408;-79
2021/07/14 05:51:28;;;;;;;7.38;6.68;;;;;;;33.45;42.30;94786.84;4969630;28;20039;-78
2021/07/14 05:53:54;;;;;;;7.15;6.55;;;;;;;35.63;38.98;94785.88;4970252;28;20120;-79
2021/07/14 05:56:19;;;;;;;6.05;5.65;;;;;;;34.00;40.43;94789.56;4976495;28;20403;-77
2021/07/14 05:58:44;;;;;;;7.85;6.43;;;;;;;34.01;41.86;94786.56;4984849;28;20049;-77
2021/07/14 06:01:10;;;;;;;6.93;6.43;;;;;;;35.58;39.93;94791.47;4983070;28;20042;-78
2021/07/14 06:03:35;;;;;;;6.57;5.68;;;;;;;34.10;41.27;94783.84;4973368;28;20085;-77
2021/07/14 06:06:01;;;;;;;6.57;6.15;;;;;;;35.68;38.46;94791.84;4989115;28;20035;-78
2021/07/14 06:08:26;;;;;;;7.25;6.75;;;;;;;33.83;40.95;94790.41;4991660;28;20038;-77
2021/07/14 06:10:52;;;;;;;7.32;6.53;;;;;;;36.12;38.49;94784.09;4992999;28;20037;-78
2021/07/14 06:13:18;;;;;;;6.68;6.07;;;;;;;36.35;36.23;94783.31;4992177;28;20729;-78
2021/07/14 06:15:43;;;;;;;5.97;5.47;;;;;;;33.30;40.17;94780.03;4992550;28;20030;-76
2021/07/14 06:18:09;;;;;;;6.63;6.00;;;;;;;36.30;35.91;94783.53;4991750;28;20038;-77
2021/07/14 06:20:34;;;;;;;7.57;6.88;;;;;;;32.67;41.79;94786.00;4992967;28;20038;-76
2021/07/14 06:23:00;;;;;;;7.68;5.55;;;;;;;33.36;40.20;94782.25;4991901;28;20044;-78
2021/07/14 06:25:25;;;;;;;6.63;6.13;;;;;;;36.45;36.42;94793.66;4993241;28;20394;-77
2021/07/14 06:27:51;;;;;;;5.82;5.38;;;;;;;36.25;36.23;94783.75;4991931;28;20118;-79
2021/07/14 06:30:16;;;;;;;6.60;6.05;;;;;;;36.03;36.88;94781.44;4991802;28;20034;-77
2021/07/14 06:32:42;;;;;;;7.00;6.30;;;;;;;35.88;36.20;94774.81;4992687;28;20030;-77
2021/07/14 06:35:09;;;;;;;6.63;6.07;;;;;;;36.12;36.56;94778.69;5007138;28;20041;-77
2021/07/14 06:37:37;;;;;;;7.47;6.32;;;;;;;35.62;37.40;94773.50;4992241;28;20109;-77
2021/07/14 06:40:03;;;;;;;6.80;6.00;;;;;;;35.14;37.32;94777.56;4991374;28;20027;-77
2021/07/14 06:42:30;;;;;;;8.57;6.20;;;;;;;35.54;38.36;94775.16;4992906;28;20069;-78
2021/07/14 06:44:56;;;;;;;7.57;6.85;;;;;;;32.76;43.90;94776.84;4988867;28;20022;-78
2021/07/14 06:47:21;;;;;;;7.28;6.60;;;;;;;32.48;43.65;94778.22;4983977;28;20030;-77
2021/07/14 06:49:47;;;;;;;6.78;6.10;;;;;;;32.20;46.02;94769.63;4991843;28;20034;-79
2021/07/14 06:52:12;;;;;;;6.90;6.30;;;;;;;33.21;43.62;94769.31;4991776;28;20472;-78
2021/07/14 06:54:38;;;;;;;6.45;6.03;;;;;;;32.05;45.78;94771.91;4986992;28;20041;-78
2021/07/14 06:57:07;;;;;;;6.93;6.30;;;;;;;32.59;43.80;94768.78;4991082;28;20049;-78
2021/07/14 06:59:33;;;;;;;11.27;6.55;;;;;;;32.97;42.20;94760.94;4992125;28;20119;-75
2021/07/14 07:02:02;;;;;;;7.97;6.95;;;;;;;33.15;41.88;94762.53;4990797;28;20633;-75
2021/07/14 07:04:31;;;;;;;7.38;6.75;;;;;;;33.72;42.91;94762.28;4992310;28;20030;-77
2021/07/14 07:06:57;;;;;;;7.15;6.50;;;;;;;32.75;44.72;94764.53;4991226;28;20026;-78
2021/07/14 07:09:22;;;;;;;6.78;6.13;;;;;;;31.90;44.95;94764.25;4989969;28;20084;-77
2021/07/14 07:11:48;;;;;;;7.40;6.90;;;;;;;30.97;48.43;94766.03;4991840;28;20033;-78
2021/07/14 07:14:13;;;;;;;8.45;7.63;;;;;;;30.20;49.61;94760.69;4972493;28;20502;-77
2021/07/14 07:16:38;;;;;;;7.63;6.93;;;;;;;32.10;46.59;94756.50;4972358;28;20057;-78
2021/07/14 07:19:05;;;;;;;7.00;6.40;;;;;;;31.26;48.36;94763.72;4971125;28;20026;-78
2021/07/14 07:21:31;;;;;;;8.57;7.78;;;;;;;31.91;47.50;94763.16;4972545;28;20027;-79
2021/07/14 07:23:57;;;;;;;7.10;6.70;;;;;;;34.19;44.17;94763.91;4971662;28;20030;-77
2021/07/14 07:26:22;;;;;;;7.35;6.85;;;;;;;36.17;38.62;94760.38;4972172;28;20045;-78
2021/07/14 07:28:50;;;;;;;8.35;6.80;;;;;;;33.73;43.52;94759.28;4971139;28;20023;-78
2021/07/14 07:31:16;;;;;;;7.78;7.05;;;;;;;32.30;48.59;94747.84;4971881;28;20081;-80
2021/07/14 07:33:41;;;;;;;7.10;6.38;;;;;;;31.55;47.28;94761.41;4983824;28;20411;-80
2021/07/14 07:36:07;;;;;;;7.72;7.10;;;;;;;31.24;48.08;94758.66;4990996;28;20029;-78
2021/07/14 07:38:33;;;;;;;7.53;6.75;;;;;;;30.88;48.07;94760.56;4991500;28;20044;-78
2021/07/14 07:40:58;;;;;;;7.93;7.22;;;;;;;31.46;47.29;94760.56;4989830;28;20054;-78
2021/07/14 07:43:26;;;;;;;9.07;7.18;;;;;;;31.34;47.61;94758.41;4991492;28;20073;-77
2021/07/14 07:45:52;;;;;;;7.73;7.17;;;;;;;31.80;48.07;94759.97;4983156;28;20038;-78
2021/07/14 07:48:18;;;;;;;7.78;6.90;;;;;;;32.02;47.96;94745.69;4990874;28;20287;-79
2021/07/14 07:50:43;;;;;;;9.55;7.80;;;;;;;31.33;49.33;94746.13;4990474;28;20038;-77
2021/07/14 07:53:09;;;;;;;10.23;7.60;;;;;;;30.67;49.61;94746.84;4990941;28;20034;-75
2021/07/14 07:55:34;;;;;;;8.18;7.57;;;;;;;31.79;47.08;94748.44;4988445;28;20069;-75
2021/07/14 07:58:00;;;;;;;8.30;7.60;;;;;;;33.02;47.52;94743.84;4990095;28;20022;-78
2021/07/14 08:00:25;;;;;;;10.48;7.40;;;;;;;31.81;47.45;94743.59;4984223;28;20034;-77
2021/07/14 08:02:52;;;;;;;8.48;7.10;;;;;;;33.13;47.97;94745.94;4985857;28;20051;-78
2021/07/14 08:05:17;;;;;;;9.75;7.55;;;;;;;31.96;47.98;94749.63;4981276;28;20109;-77
2021/07/14 08:07:43;;;;;;;8.32;7.63;;;;;;;31.90;47.84;94746.28;4970756;28;20039;-80
2021/07/14 08:10:09;;;;;;;7.90;7.15;;;;;;;31.97;47.68;94745.84;4971138;28;20037;-78
2021/07/14 08:12:35;;;;;;;8.02;7.25;;;;;;;31.14;45.74;94742.06;4980372;28;20112;-77
2021/07/14 08:15:01;;;;;;;8.43;7.47;;;;;;;31.45;46.44;94745.56;4990457;28;20455;-79
2021/07/14 08:17:26;;;;;;;7.50;7.00;;;;;;;31.76;47.38;94741.03;4990395;28;20031;-81
2021/07/14 08:19:53;;;;;;;8.10;7.38;;;;;;;31.57;46.10;94736.97;4987709;28;20064;-78
2021/07/14 08:22:18;;;;;;;7.55;6.95;;;;;;;31.94;45.30;94730.38;4989537;28;20491;-80
2021/07/14 08:24:44;;;;;;;7.90;7.13;;;;;;;32.68;46.33;94729.34;4989183;28;20091;-80
2021/07/14 08:27:09;;;;;;;7.35;6.68;;;;;;;32.57;44.03;94728.06;4990196;28;20034;-80
2021/07/14 08:29:35;;;;;;;8.38;7.60;;;;;;;31.54;46.91;94730.34;4989102;28;20058;-78
2021/07/14 08:32:01;;;;;;;8.52;6.82;;;;;;;31.68;45.63;94730.28;4990410;28;20038;-77
2021/07/14 08:34:27;;;;;;;9.60;6.82;;;;;;;32.50;43.23;94727.69;4988880;28;20393;-80
2021/07/14 08:36:52;;;;;;;7.38;6.88;;;;;;;32.30;44.58;94726.41;4986940;28;20654;-79
2021/07/14 08:39:17;;;;;;;7.95;7.07;;;;;;;31.43;44.22;94723.66;4988269;28;20030;-77
2021/07/14 08:41:43;;;;;;;7.93;7.22;;;;;;;31.16;44.91;94721.13;4986421;28;20038;-78
2021/07/14 08:44:13;;;;;;;7.75;7.15;;;;;;;32.69;43.12;94717.47;4987984;28;20496;-80
2021/07/14 08:46:39;;;;;;;;;;;;;;;32.57;42.63;94719.22;4987095;28;20076;-80
2021/07/14 08:49:05;;;;;;;13.20;7.47;;;;;;;31.70;43.86;94717.34;4990088;28;19917;-80
2021/07/14 08:51:34;;;;;;;15.18;7.45;;;;;;;32.14;41.49;94709.16;4982300;28;20289;-78
2021/07/14 08:54:00;;;;;;;7.20;6.18;;;;;;;32.77;40.89;94711.34;4985842;28;20400;-81
2021/07/14 08:56:25;;;;;;;6.53;6.07;;;;;;;31.67;40.92;94715.28;4987979;28;20022;-79
2021/07/14 08:58:51;;;;;;;6.85;6.15;;;;;;;32.69;41.72;94698.69;4986427;28;20034;-80
2021/07/14 09:01:16;;;;;;;7.65;6.32;;;;;;;32.21;42.00;94711.38;4987668;28;20491;-78
2021/07/14 09:03:42;;;;;;;7.15;6.55;;;;;;;31.89;41.25;94704.50;4979198;28;20038;-82
2021/07/14 09:06:08;;;;;;;7.07;6.57;;;;;;;32.04;41.40;94706.78;4975197;28;20035;-80
2021/07/14 09:08:34;;;;;;;6.30;5.65;;;;;;;32.60;40.24;94700.59;4968146;28;20053;-76
2021/07/14 09:10:59;;;;;;;6.88;6.32;;;;;;;32.26;40.45;94706.69;4986777;28;20685;-79
2021/07/14 09:13:33;;;;;;;6.03;5.63;;;;;;;32.53;41.31;94707.50;4971377;28;20041;-79
2021/07/14 09:15:59;;;;;;;6.85;6.18;;;;;;;32.13;40.63;94709.50;4968862;28;20166;-78
2021/07/14 09:18:26;;;;;;;6.07;5.30;;;;;;;32.40;38.44;94708.44;4972054;28;20464;-81
2021/07/14 09:20:51;;;;;;;6.40;5.80;;;;;;;32.89;37.97;94706.13;4977711;28;20026;-78
2021/07/14 09:23:18;;;;;;;6.38;5.88;;;;;;;31.48;39.97;94720.84;4983447;28;20033;-78
2021/07/14 09:25:54;;;;;;;6.53;6.00;;;;;;;33.17;39.13;94709.28;4983467;28;20022;-80
2021/07/14 09:28:21;;;;;;;6.15;5.70;;;;;;;32.34;37.10;94707.78;4988548;28;20027;-80
2021/07/14 09:31:10;;;;;;;5.40;4.90;;;;;;;33.31;34.86;94707.19;4982778;28;20601;-80
2021/07/14 09:33:36;;;;;;;5.97;5.53;;;;;;;33.15;36.14;94706.13;4968063;28;20121;-78
2021/07/14 09:36:02;;;;;;;6.50;6.07;;;;;;;33.27;38.02;94716.19;4967712;28;20031;-79
2021/07/14 09:38:29;;;;;;;6.05;5.07;;;;;;;32.36;35.09;94714.44;4968537;28;20045;-81
2021/07/14 09:40:56;;;;;;;5.47;4.95;;;;;;;32.51;34.25;94704.34;4973556;28;20100;-79
2021/07/14 09:43:23;;;;;;;5.85;5.43;;;;;;;32.70;35.92;94705.66;4978538;28;20109;-81
2021/07/14 09:45:51;;;;;;;6.00;5.50;;;;;;;33.46;36.17;94705.13;4988141;28;20042;-77
2021/07/14 09:48:20;;;;;;;6.13;5.72;;;;;;;32.52;39.14;94713.97;4987628;28;20054;-79
2021/07/14 09:50:51;;;;;;;6.15;5.75;;;;;;;33.11;38.30;94707.06;4971552;28;20057;-79
2021/07/14 09:53:19;;;;;;;6.55;6.05;;;;;;;32.80;37.16;94710.72;4969816;28;20061;-81
2021/07/14 09:55:46;;;;;;;8.35;6.25;;;;;;;31.99;38.16;94703.41;4967704;28;20033;-81
2021/07/14 09:58:16;;;;;;;6.32;5.82;;;;;;;32.20;37.73;94699.09;4981995;28;20531;-77
2021/07/14 10:00:44;;;;;;;6.82;5.88;;;;;;;32.60;38.18;94703.28;4983462;28;20057;-81
2021/07/14 10:03:10;;;;;;;6.50;6.07;;;;;;;31.92;37.10;94703.88;4985496;28;20494;-76
2021/07/14 10:05:36;;;;;;;5.88;5.47;;;;;;;32.70;38.07;94707.53;4984084;28;20129;-80
2021/07/14 10:08:17;;;;;;;5.65;5.25;;;;;;;32.91;36.71;94710.41;4984769;28;20121;-78
2021/07/14 10:10:43;;;;;;;5.43;5.05;;;;;;;32.55;37.82;94700.72;4983633;28;20034;-79
2021/07/14 10:13:09;;;;;;;6.20;5.68;;;;;;;32.71;36.12;94691.13;4973152;28;20034;-76
2021/07/14 10:15:34;;;;;;;5.70;5.20;;;;;;;33.06;37.07;94688.41;4977437;28;20034;-79
2021/07/14 10:18:00;;;;;;;5.95;5.50;;;;;;;32.49;35.48;94687.78;4983875;28;20038;-76
2021/07/14 10:20:35;;;;;;;6.47;5.88;;;;;;;32.77;34.89;94676.44;4986432;28;20042;-78
2021/07/14 10:23:10;;;;;;;5.75;5.25;;;;;;;32.51;36.41;94686.34;4986259;28;20058;-80
2021/07/14 10:25:38;;;;;;;6.10;5.70;;;;;;;32.68;36.65;94694.44;4984298;28;20034;-80
2021/07/14 10:28:05;;;;;;;6.13;5.65;;;;;;;32.78;37.04;94694.09;4976820;28;20038;-80
2021/07/14 10:30:31;;;;;;;5.72;5.28;;;;;;;32.55;36.19;94695.38;4985538;28;20026;-81
2021/07/14 10:32:57;;;;;;;7.35;5.38;;;;;;;32.41;35.94;94692.03;4986399;28;20408;-82
2021/07/14 10:35:31;;;;;;;6.18;5.70;;;;;;;32.78;34.49;94674.56;4965865;28;20029;-82
2021/07/14 10:38:01;;;;;;;6.32;5.80;;;;;;;32.54;34.16;94683.03;4967255;28;20027;-80
2021/07/14 10:40:27;;;;;;;7.47;5.25;;;;;;;32.65;35.42;94681.66;4980236;28;20029;-78
2021/07/14 10:42:53;;;;;;;5.85;5.20;;;;;;;33.12;34.66;94682.59;4984079;28;20022;-78
2021/07/14 10:45:18;;;;;;;4.93;4.63;;;;;;;32.97;34.34;94676.91;4982518;28;20037;-80
2021/07/14 10:47:47;;;;;;;5.18;4.88;;;;;;;32.48;36.13;94668.22;4979797;28;20026;-80
2021/07/14 10:50:15;;;;;;;5.10;4.80;;;;;;;33.01;34.09;94670.56;4979771;28;20038;-78
2021/07/14 10:52:41;;;;;;;5.60;5.10;;;;;;;33.35;32.77;94672.44;4981538;28;20049;-82
2021/07/14 10:55:11;;;;;;;4.90;4.40;;;;;;;32.96;32.40;94665.38;4982354;28;20393;-80
2021/07/14 10:57:37;;;;;;;5.03;4.72;;;;;;;32.83;31.98;94669.00;4982401;28;20116;-81
2021/07/14 11:00:07;;;;;;;4.85;4.45;;;;;;;32.93;33.35;94662.53;4982688;28;20035;-80
2021/07/14 11:02:47;;;;;;;5.68;5.30;;;;;;;33.42;31.18;94661.97;4984006;28;20450;-81
2021/07/14 11:05:13;;;;;;;5.20;4.80;;;;;;;33.41;31.80;94657.72;4982439;28;20124;-81
2021/07/14 11:07:47;;;;;;;5.32;4.88;;;;;;;33.04;33.35;94669.16;4984766;28;20037;-79
2021/07/14 11:10:37;;;;;;;5.45;4.95;;;;;;;33.14;32.87;94658.09;4983187;28;21237;-77
2021/07/14 11:13:32;;;;;;;5.25;4.25;;;;;;;33.16;33.16;94655.88;4976997;28;20067;-77
2021/07/14 11:15:59;;;;;;;4.97;4.57;;;;;;;33.49;32.24;94654.19;4973472;28;20042;-78
2021/07/14 11:18:30;;;;;;;5.13;4.82;;;;;;;33.63;32.33;94652.13;4996359;28;20026;-78
2021/07/14 11:20:56;;;;;;;5.15;4.68;;;;;;;33.51;32.35;94651.97;4981468;28;20035;-80
2021/07/14 11:23:25;;;;;;;5.53;5.07;;;;;;;33.13;32.05;94656.53;4981914;28;20036;-78
2021/07/14 11:25:57;;;;;;;11.38;5.55;;;;;;;33.48;31.57;94657.22;4982353;28;20030;-79
2021/07/14 11:28:25;;;;;;;4.72;4.43;;;;;;;33.73;32.12;94645.59;4982377;28;20026;-78
2021/07/14 11:30:51;;;;;;;5.57;4.80;;;;;;;33.73;33.08;94630.25;4979879;28;20176;-79
2021/07/14 11:33:28;;;;;;;5.40;4.88;;;;;;;33.51;31.89;94646.59;4985228;28;20026;-79
2021/07/14 11:36:04;;;;;;;4.72;4.32;;;;;;;33.30;31.33;94646.50;4977743;28;20069;-78
2021/07/14 11:38:36;;;;;;;4.97;4.57;;;;;;;33.56;30.08;94649.09;4983477;28;20403;-79
2021/07/14 11:41:02;;;;;;;5.32;4.57;;;;;;;32.96;31.14;94648.47;4985939;28;20058;-77
2021/07/14 11:43:38;;;;;;;5.53;5.03;;;;;;;33.63;31.14;94632.50;4985081;28;20030;-79
2021/07/14 11:46:06;;;;;;;5.57;4.38;;;;;;;33.85;30.24;94629.53;4983584;28;20427;-76
2021/07/14 11:48:32;;;;;;;5.05;4.55;;;;;;;33.44;30.40;94624.81;4983631;28;20431;-76
2021/07/14 11:51:06;;;;;;;4.68;4.28;;;;;;;33.44;30.66;94630.19;4985431;28;20041;-75
2021/07/14 11:53:37;;;;;;;7.50;5.13;;;;;;;32.99;30.97;94631.72;4985023;28;20069;-77
2021/07/14 11:56:06;;;;;;;5.65;5.10;;;;;;;33.15;32.66;94638.19;4981494;28;20455;-76
2021/07/14 11:59:00;;;;;;;5.60;5.18;;;;;;;33.05;32.32;94633.13;4979018;28;20026;-78
2021/07/14 12:01:25;;;;;;;5.85;4.85;;;;;;;33.14;31.03;94628.53;4972089;28;20508;-77
2021/07/14 12:04:06;;;;;;;5.63;5.13;;;;;;;33.39;30.16;94630.38;4968344;28;20619;-78
2021/07/14 12:06:37;;;;;;;5.32;4.93;;;;;;;33.72;29.81;94627.88;4967609;28;20042;-78
2021/07/14 12:09:12;;;;;;;4.55;4.22;;;;;;;33.50;30.68;94625.41;4967201;28;20457;-75
2021/07/14 12:11:44;;;;;;;4.68;4.38;;;;;;;33.54;32.16;94627.16;4968354;28;20547;-75
2021/07/14 12:14:21;;;;;;;8.30;5.10;;;;;;;33.78;30.69;94627.38;4967667;28;20037;-79
2021/07/14 12:16:48;;;;;;;6.68;4.82;;;;;;;34.21;30.71;94621.75;4968861;28;20583;-77
2021/07/14 12:19:25;;;;;;;5.18;4.72;;;;;;;34.21;30.55;94618.28;4980123;28;20354;-79
2021/07/14 12:21:51;;;;;;;4.95;4.55;;;;;;;33.83;30.77;94616.44;4977455;28;20022;-76
2021/07/14 12:24:36;;;;;;;5.85;4.57;;;;;;;33.64;30.51;94608.00;4986101;28;20114;-80
2021/07/14 12:27:22;;;;;;;5.25;4.50;;;;;;;33.74;31.84;94607.63;4967687;28;20027;-78
2021/07/14 12:29:58;;;;;;;5.05;4.65;;;;;;;33.77;31.49;94604.31;4984480;28;20125;-75
2021/07/14 12:32:54;;;;;;;5.18;4.68;;;;;;;33.01;31.39;94603.44;4969183;28;20038;-74
2021/07/14 12:35:24;;;;;;;6.20;4.80;;;;;;;33.25;31.05;94600.25;4973236;28;20074;-74
2021/07/14 12:37:56;;;;;;;5.28;4.78;;;;;;;33.90;30.27;94597.91;4978264;28;20160;-75
2021/07/14 12:40:24;;;;;;;5.10;4.70;;;;;;;33.82;31.21;94598.72;4972917;28;20046;-77
2021/07/14 12:42:50;;;;;;;5.47;5.05;;;;;;;33.92;30.71;94592.19;4976047;28;20034;-76
2021/07/14 12:45:23;;;;;;;5.65;5.05;;;;;;;33.91;31.43;94593.28;4985487;28;20057;-79
2021/07/14 12:47:49;;;;;;;6.55;4.63;;;;;;;34.01;29.75;94590.22;4986936;28;20061;-77
2021/07/14 12:50:25;;;;;;;5.32;4.82;;;;;;;33.70;30.47;94590.56;4985900;28;20027;-76
2021/07/14 12:52:52;;;;;;;5.85;5.22;;;;;;;34.05;33.12;94587.66;4985631;28;20038;-74
2021/07/14 12:55:18;;;;;;;5.68;5.22;;;;;;;33.56;31.50;94581.91;4987330;28;20125;-77
2021/07/14 12:57:44;;;;;;;5.75;5.35;;;;;;;33.73;31.02;94594.50;4985005;28;20031;-75
2021/07/14 13:00:10;;;;;;;5.93;5.43;;;;;;;33.96;32.07;94582.34;4986384;28;20081;-75
2021/07/14 13:02:56;;;;;;;6.25;5.70;;;;;;;33.22;29.67;94576.72;4984941;28;20047;-74
2021/07/14 13:05:21;;;;;;;5.25;4.78;;;;;;;33.79;30.72;94580.56;4997750;28;20520;-77
2021/07/14 13:07:50;;;;;;;6.40;5.90;;;;;;;33.45;32.15;94577.25;4985790;28;20030;-74
2021/07/14 13:10:17;;;;;;;9.13;6.63;;;;;;;32.88;31.71;94572.97;4984420;28;20045;-74
2021/07/14 13:12:43;;;;;;;6.00;5.43;;;;;;;33.50;32.36;94575.16;4985334;28;20108;-73
2021/07/14 13:15:11;;;;;;;6.03;5.63;;;;;;;33.43;31.68;94572.19;4966496;28;20462;-76
2021/07/14 13:17:37;;;;;;;6.00;5.60;;;;;;;33.61;32.30;94570.22;4986103;28;20110;-75
2021/07/14 13:20:13;;;;;;;7.38;5.72;;;;;;;33.94;32.31;94571.13;4965822;28;20031;-76
2021/07/14 13:22:39;;;;;;;6.10;5.70;;;;;;;33.67;31.64;94568.94;4983078;28;20088;-75
2021/07/14 13:25:09;;;;;;;6.00;5.60;;;;;;;33.40;32.42;94562.88;4985050;28;20034;-76
2021/07/14 13:27:38;;;;;;;5.65;5.25;;;;;;;33.62;32.55;94561.81;4985095;28;20036;-77
2021/07/14 13:30:27;;;;;;;6.20;5.70;;;;;;;33.98;33.18;94563.19;4986850;28;20411;-75
2021/07/14 13:33:01;;;;;;;6.68;5.65;;;;;;;34.04;32.75;94561.88;4984818;28;20038;-76
2021/07/14 13:35:31;;;;;;;6.38;5.88;;;;;;;33.97;33.74;94562.41;4983952;28;20034;-76
2021/07/14 13:37:57;;;;;;;6.55;5.93;;;;;;;33.74;33.91;94553.09;4985603;28;20141;-76
2021/07/14 13:40:27;;;;;;;6.90;6.40;;;;;;;34.14;34.71;94558.81;4979894;28;20482;-76
2021/07/14 13:42:53;;;;;;;7.45;6.10;;;;;;;33.40;33.02;94554.03;4981229;28;20412;-75
2021/07/14 13:45:28;;;;;;;8.15;5.80;;;;;;;33.70;32.63;94555.63;4979500;28;20072;-75
2021/07/14 13:47:57;;;;;;;50.85;9.35;;;;;;;34.17;34.01;94548.19;4981322;28;20093;-76
2021/07/14 13:50:23;;;;;;;6.60;5.88;;;;;;;33.66;33.96;94535.09;4980204;28;20030;-75
2021/07/14 13:53:02;;;;;;;6.47;5.93;;;;;;;33.72;34.07;94549.91;4979711;28;20032;-75
2021/07/14 13:55:27;;;;;;;;;;;;;;;33.42;33.35;94541.06;4980741;28;20033;-74
2021/07/14 13:57:52;;;;;;;5.90;5.50;;;;;;;33.71;33.53;94538.41;4979593;28;20299;-76
2021/07/14 14:00:18;;;;;;;6.45;5.95;;;;;;;33.98;34.74;94541.66;4982300;28;20285;-75
2021/07/14 14:02:55;;;;;;;11.27;6.07;;;;;;;33.31;33.45;94539.84;4979654;28;20073;-75
2021/07/14 14:05:21;;;;;;;9.15;6.90;;;;;;;33.84;34.30;94536.56;4977836;28;20395;-74
2021/07/14 14:07:48;;;;;;;9.38;6.43;;;;;;;33.44;34.32;94540.72;4979394;28;20018;-75
2021/07/14 14:10:20;;;;;;;8.07;6.38;;;;;;;33.48;33.66;94536.28;4979379;28;20042;-73
2021/07/14 14:12:51;;;;;;;7.45;6.47;;;;;;;33.64;35.13;94527.38;4982094;28;20038;-77
2021/07/14 14:15:23;;;;;;;7.68;6.82;;;;;;;33.63;34.63;94531.16;4978890;28;20135;-76
2021/07/14 14:17:49;;;;;;;7.45;6.85;;;;;;;33.24;34.90;94520.75;4979558;28;20034;-78
2021/07/14 14:20:16;;;;;;;7.07;6.60;;;;;;;33.43;34.64;94531.88;4977452;28;20069;-76
2021/07/14 14:22:42;;;;;;;6.88;6.38;;;;;;;33.63;33.96;94533.84;4980384;28;20066;-77
2021/07/14 14:25:11;;;;;;;7.10;6.60;;;;;;;33.27;35.00;94522.78;4980127;28;20331;-75
2021/07/14 14:27:51;;;;;;;8.30;6.65;;;;;;;33.54;34.41;94532.28;4983922;28;20026;-76
2021/07/14 14:30:25;;;;;;;7.00;6.50;;;;;;;33.65;34.21;94533.53;4983732;28;20030;-75
2021/07/14 14:32:51;;;;;;;9.35;6.57;;;;;;;33.29;34.30;94531.34;4980275;28;20119;-75
2021/07/14 14:35:21;;;;;;;6.65;6.07;;;;;;;33.47;33.28;94532.81;4985230;28;20026;-78
2021/07/14 14:37:46;;;;;;;7.22;6.30;;;;;;;33.64;33.02;94534.63;4985418;28;20404;-74
2021/07/14 14:40:12;;;;;;;6.72;6.15;;;;;;;33.41;33.85;94526.03;4984081;28;20018;-76
2021/07/14 14:42:38;;;;;;;7.22;6.53;;;;;;;33.60;34.62;94525.63;4982369;28;20045;-76
2021/07/14 14:45:05;;;;;;;6.90;6.50;;;;;;;33.18;34.40;94517.47;4984015;28;20034;-75
2021/07/14 14:47:30;;;;;;;6.68;6.15;;;;;;;33.42;35.26;94526.84;4984560;28;20022;-75
2021/07/14 14:49:55;;;;;;;9.18;6.72;;;;;;;33.38;34.75;94518.63;4982365;28;20019;-76
2021/07/14 14:52:21;;;;;;;7.07;6.47;;;;;;;33.43;34.26;94518.44;4985203;28;20027;-75
2021/07/14 14:54:46;;;;;;;6.63;6.13;;;;;;;33.36;35.69;94521.63;4982065;28;20617;-77
2021/07/14 14:57:12;;;;;;;7.03;6.53;;;;;;;33.51;36.39;94508.75;4984852;28;20373;-76
2021/07/14 14:59:37;;;;;;;7.43;6.82;;;;;;;33.21;35.62;94516.03;4983107;28;20040;-76
2021/07/14 15:02:03;;;;;;;7.57;6.93;;;;;;;33.30;36.59;94511.41;4982327;28;20042;-76
2021/07/14 15:04:29;;;;;;;6.90;6.40;;;;;;;33.08;36.98;94504.38;4983262;28;20396;-76
2021/07/14 15:06:54;;;;;;;9.60;6.57;;;;;;;33.38;36.63;94497.16;4981823;28;20527;-75
2021/07/14 15:09:19;;;;;;;6.93;6.32;;;;;;;33.15;37.95;94510.06;4983723;28;20019;-76
2021/07/14 15:11:45;;;;;;;8.00;7.30;;;;;;;33.44;37.77;94511.97;4980878;28;20041;-76
2021/07/14 15:14:10;;;;;;;7.55;7.05;;;;;;;33.21;37.97;94499.91;4982911;28;20486;-77
2021/07/14 15:16:36;;;;;;;8.23;7.55;;;;;;;33.04;36.42;94500.00;4981322;28;20471;-77
2021/07/14 15:19:01;;;;;;;7.25;6.75;;;;;;;33.20;37.31;94499.13;4982427;28;20532;-77
2021/07/14 15:21:29;;;;;;;9.00;7.55;;;;;;;33.12;37.84;94496.50;4981785;28;20456;-76
2021/07/14 15:23:56;;;;;;;7.63;7.03;;;;;;;33.03;37.00;94499.19;4981715;28;20484;-78
2021/07/14 15:29:06;;;;;;;7.82;7.32;;;;;;;33.06;38.39;94506.59;4982634;28;20141;-76
2021/07/14 15:31:32;;;;;;;8.35;7.65;;;;;;;32.69;40.16;94501.97;4984312;28;20026;-76
2021/07/14 15:33:59;;;;;;;7.93;7.30;;;;;;;32.64;40.26;94494.91;4982182;28;20057;-77
2021/07/14 15:36:25;;;;;;;8.73;8.13;;;;;;;32.64;40.86;94484.19;4982614;28;20026;-78
2021/07/14 15:38:50;;;;;;;7.85;7.35;;;;;;;32.39;39.33;94503.78;4981650;28;20120;-77
2021/07/14 15:41:16;;;;;;;8.23;7.72;;;;;;;32.42;39.73;94497.78;4980457;28;20037;-77
2021/07/14 15:43:41;;;;;;;8.65;7.28;;;;;;;32.47;40.87;94500.28;4981745;28;20472;-75
2021/07/14 15:46:07;;;;;;;8.10;7.57;;;;;;;32.40;40.46;94494.59;4980984;28;20022;-77
2021/07/14 15:48:32;;;;;;;8.60;7.90;;;;;;;32.17;41.28;94490.56;4988616;28;20408;-77
2021/07/14 15:50:57;;;;;;;8.13;7.53;;;;;;;32.27;41.73;94484.88;4983587;28;20041;-77
2021/07/14 15:53:23;;;;;;;8.55;7.95;;;;;;;32.12;42.19;94488.81;4969095;28;20123;-76
2021/07/14 15:55:48;;;;;;;7.82;7.25;;;;;;;32.10;42.69;94484.88;4984567;28;20049;-76
2021/07/14 15:58:15;;;;;;;8.60;7.75;;;;;;;32.06;42.87;94494.66;4987656;28;20061;-76
2021/07/14 16:00:41;;;;;;;8.27;7.65;;;;;;;31.91;43.18;94484.41;4988015;28;20101;-78
2021/07/14 16:03:07;;;;;;;8.40;7.80;;;;;;;31.83;42.31;94491.31;4986281;28;20121;-78
2021/07/14 16:05:33;;;;;;;8.10;7.50;;;;;;;31.79;42.97;94495.72;4987395;28;20389;-77
2021/07/14 16:07:58;;;;;;;8.25;7.55;;;;;;;31.62;43.99;94495.75;4986027;28;20034;-77
2021/07/14 16:10:24;;;;;;;9.55;7.93;;;;;;;31.54;44.49;94499.97;4987325;28;20034;-77
2021/07/14 16:12:49;;;;;;;8.48;7.60;;;;;;;31.56;45.21;94499.66;4966795;28;20027;-77
2021/07/14 16:15:15;;;;;;;7.72;7.13;;;;;;;31.46;44.37;94492.69;4968149;28;20026;-77
2021/07/14 16:17:40;;;;;;;7.78;7.25;;;;;;;31.52;43.14;94493.34;4967762;28;20476;-76
2021/07/14 16:20:07;;;;;;;7.40;7.00;;;;;;;31.38;44.64;94493.44;4978029;28;20427;-77
2021/07/14 16:22:33;;;;;;;7.85;7.35;;;;;;;31.31;45.19;94495.78;4986379;28;20019;-76
2021/07/14 16:24:58;;;;;;;8.38;7.70;;;;;;;31.23;45.54;94494.69;4985613;28;20480;-76
2021/07/14 16:27:24;;;;;;;8.55;7.95;;;;;;;31.33;46.65;94491.72;4987104;28;20093;-76
2021/07/14 16:29:50;;;;;;;10.32;7.63;;;;;;;31.48;44.85;94495.84;4984591;28;20026;-75
2021/07/14 16:32:15;;;;;;;11.02;8.77;;;;;;;31.23;47.11;94496.56;4965797;28;20041;-77
2021/07/14 16:34:40;;;;;;;9.00;8.25;;;;;;;31.24;47.12;94490.91;4989926;28;20092;-75
2021/07/14 16:37:06;;;;;;;11.32;7.63;;;;;;;31.36;45.21;94503.69;5006204;28;20052;-76
2021/07/14 16:39:31;;;;;;;8.15;7.60;;;;;;;31.37;43.96;94505.25;5006210;28;20491;-75
2021/07/14 16:41:57;;;;;;;11.55;7.63;;;;;;;31.07;45.15;94506.94;4999846;28;20088;-76